sensor_id;sensor_type;location;lat;lon;timestamp;P1;durP1;ratioP1;P2;durP2;ratioP2
1649;SDS011;822;53.670;8.676;2022-11-18T00:00:28;2.73;;;2.43;;
1649;SDS011;822;53.670;8.676;2022-11-18T00:02:55;2.20;;;2.00;;
1649;SDS011;822;53.670;8.676;2022-11-18T00:05:23;2.80;;;2.17;;
1649;SDS011;822;53.670;8.676;2022-11-18T00:07:50;2.00;;;1.57;;
1649;SDS011;822;53.670;8.676;2022-11-18T00:10:17;3.23;;;2.93;;
1649;SDS011;822;53.670;8.676;2022-11-18T00:12:44;3.37;;;2.20;;
1649;SDS011;822;53.670;8.676;2022-11-18T00:15:27;2.50;;;2.33;;
1649;SDS011;822;53.670;8.676;2022-11-18T00:17:54;2.23;;;2.03;;
1649;SDS011;822;53.670;8.676;2022-11-18T00:20:22;3.13;;;2.63;;
1649;SDS011;822;53.670;8.676;2022-11-18T00:22:49;2.83;;;1.73;;
1649;SDS011;822;53.670;8.676;2022-11-18T00:25:16;3.40;;;2.63;;
1649;SDS011;822;53.670;8.676;2022-11-18T00:27:42;1.73;;;1.53;;
1649;SDS011;822;53.670;8.676;2022-11-18T00:30:10;3.33;;;3.07;;
1649;SDS011;822;53.670;8.676;2022-11-18T00:32:37;3.60;;;2.23;;
1649;SDS011;822;53.670;8.676;2022-11-18T00:35:04;2.43;;;2.23;;
1649;SDS011;822;53.670;8.676;2022-11-18T00:37:33;3.77;;;3.47;;
1649;SDS011;822;53.670;8.676;2022-11-18T00:40:00;3.73;;;2.27;;
1649;SDS011;822;53.670;8.676;2022-11-18T00:42:27;3.50;;;2.20;;
1649;SDS011;822;53.670;8.676;2022-11-18T00:45:11;2.50;;;1.80;;
1649;SDS011;822;53.670;8.676;2022-11-18T00:47:38;2.60;;;2.40;;
1649;SDS011;822;53.670;8.676;2022-11-18T00:50:05;2.83;;;2.63;;
1649;SDS011;822;53.670;8.676;2022-11-18T00:52:33;2.33;;;1.90;;
1649;SDS011;822;53.670;8.676;2022-11-18T00:55:00;2.40;;;1.60;;
1649;SDS011;822;53.670;8.676;2022-11-18T00:57:27;4.57;;;3.40;;
1649;SDS011;822;53.670;8.676;2022-11-18T00:59:54;4.97;;;3.10;;
1649;SDS011;822;53.670;8.676;2022-11-18T01:02:20;4.90;;;4.30;;
1649;SDS011;822;53.670;8.676;2022-11-18T01:04:47;8.00;;;3.23;;
1649;SDS011;822;53.670;8.676;2022-11-18T01:07:14;5.57;;;2.13;;
1649;SDS011;822;53.670;8.676;2022-11-18T01:09:42;3.67;;;3.03;;
1649;SDS011;822;53.670;8.676;2022-11-18T01:12:09;4.00;;;2.60;;
1649;SDS011;822;53.670;8.676;2022-11-18T01:14:54;4.20;;;2.70;;
1649;SDS011;822;53.670;8.676;2022-11-18T01:17:21;4.13;;;3.10;;
1649;SDS011;822;53.670;8.676;2022-11-18T01:19:47;2.53;;;2.33;;
1649;SDS011;822;53.670;8.676;2022-11-18T01:22:14;3.50;;;2.50;;
1649;SDS011;822;53.670;8.676;2022-11-18T01:24:42;3.77;;;3.37;;
1649;SDS011;822;53.670;8.676;2022-11-18T01:27:09;3.17;;;2.20;;
1649;SDS011;822;53.670;8.676;2022-11-18T01:29:36;3.83;;;3.10;;
1649;SDS011;822;53.670;8.676;2022-11-18T01:32:02;2.77;;;2.53;;
1649;SDS011;822;53.670;8.676;2022-11-18T01:34:29;3.03;;;2.60;;
1649;SDS011;822;53.670;8.676;2022-11-18T01:36:56;4.47;;;3.20;;
1649;SDS011;822;53.670;8.676;2022-11-18T01:39:23;3.67;;;3.00;;
1649;SDS011;822;53.670;8.676;2022-11-18T01:41:51;4.63;;;4.23;;
1649;SDS011;822;53.670;8.676;2022-11-18T01:47:23;6.33;;;3.90;;
1649;SDS011;822;53.670;8.676;2022-11-18T01:49:51;3.90;;;3.50;;
1649;SDS011;822;53.670;8.676;2022-11-18T01:52:18;5.20;;;1.77;;
1649;SDS011;822;53.670;8.676;2022-11-18T01:54:47;3.73;;;2.27;;
1649;SDS011;822;53.670;8.676;2022-11-18T01:57:18;2.47;;;2.03;;
1649;SDS011;822;53.670;8.676;2022-11-18T01:59:47;2.23;;;2.10;;
1649;SDS011;822;53.670;8.676;2022-11-18T02:02:16;4.20;;;3.00;;
1649;SDS011;822;53.670;8.676;2022-11-18T02:04:44;2.20;;;2.03;;
1649;SDS011;822;53.670;8.676;2022-11-18T02:07:13;4.63;;;2.73;;
1649;SDS011;822;53.670;8.676;2022-11-18T02:09:40;5.90;;;3.67;;
1649;SDS011;822;53.670;8.676;2022-11-18T02:12:07;4.83;;;2.70;;
1649;SDS011;822;53.670;8.676;2022-11-18T02:14:36;8.57;;;3.87;;
1649;SDS011;822;53.670;8.676;2022-11-18T02:17:06;4.70;;;2.63;;
1649;SDS011;822;53.670;8.676;2022-11-18T02:19:49;7.20;;;3.97;;
1649;SDS011;822;53.670;8.676;2022-11-18T02:22:33;7.03;;;4.50;;
1649;SDS011;822;53.670;8.676;2022-11-18T02:25:10;3.93;;;3.33;;
1649;SDS011;822;53.670;8.676;2022-11-18T02:30:39;3.07;;;2.57;;
1649;SDS011;822;53.670;8.676;2022-11-18T02:33:10;5.30;;;4.40;;
1649;SDS011;822;53.670;8.676;2022-11-18T02:35:39;5.47;;;4.30;;
1649;SDS011;822;53.670;8.676;2022-11-18T02:38:08;3.97;;;2.57;;
1649;SDS011;822;53.670;8.676;2022-11-18T02:40:37;4.40;;;3.00;;
1649;SDS011;822;53.670;8.676;2022-11-18T02:43:07;3.47;;;2.70;;
1649;SDS011;822;53.670;8.676;2022-11-18T02:45:35;8.27;;;3.67;;
1649;SDS011;822;53.670;8.676;2022-11-18T02:48:07;4.37;;;3.00;;
1649;SDS011;822;53.670;8.676;2022-11-18T02:50:34;2.97;;;2.70;;
1649;SDS011;822;53.670;8.676;2022-11-18T02:53:03;4.73;;;3.20;;
1649;SDS011;822;53.670;8.676;2022-11-18T02:55:31;4.43;;;2.90;;
1649;SDS011;822;53.670;8.676;2022-11-18T02:58:00;3.30;;;2.40;;
1649;SDS011;822;53.670;8.676;2022-11-18T03:00:28;3.37;;;2.20;;
1649;SDS011;822;53.670;8.676;2022-11-18T03:02:57;3.13;;;2.87;;
1649;SDS011;822;53.670;8.676;2022-11-18T03:05:25;3.90;;;2.70;;
1649;SDS011;822;53.670;8.676;2022-11-18T03:07:59;3.07;;;2.57;;
1649;SDS011;822;53.670;8.676;2022-11-18T03:10:31;4.30;;;3.23;;
1649;SDS011;822;53.670;8.676;2022-11-18T03:13:03;4.40;;;4.00;;
1649;SDS011;822;53.670;8.676;2022-11-18T03:15:35;4.90;;;4.50;;
1649;SDS011;822;53.670;8.676;2022-11-18T03:18:12;3.10;;;2.90;;
1649;SDS011;822;53.670;8.676;2022-11-18T03:20:44;5.20;;;4.37;;
1649;SDS011;822;53.670;8.676;2022-11-18T03:23:13;3.33;;;2.70;;
1649;SDS011;822;53.670;8.676;2022-11-18T03:25:47;6.40;;;3.70;;
1649;SDS011;822;53.670;8.676;2022-11-18T03:28:18;3.47;;;3.10;;
1649;SDS011;822;53.670;8.676;2022-11-18T03:30:52;4.33;;;3.10;;
1649;SDS011;822;53.670;8.676;2022-11-18T03:33:23;4.40;;;2.93;;
1649;SDS011;822;53.670;8.676;2022-11-18T03:35:53;4.80;;;4.30;;
1649;SDS011;822;53.670;8.676;2022-11-18T03:38:22;4.10;;;3.03;;
1649;SDS011;822;53.670;8.676;2022-11-18T03:40:52;3.47;;;3.20;;
1649;SDS011;822;53.670;8.676;2022-11-18T03:43:21;4.00;;;3.63;;
1649;SDS011;822;53.670;8.676;2022-11-18T03:45:50;3.33;;;2.97;;
1649;SDS011;822;53.670;8.676;2022-11-18T03:48:19;5.77;;;3.27;;
1649;SDS011;822;53.670;8.676;2022-11-18T03:50:50;5.10;;;4.60;;
1649;SDS011;822;53.670;8.676;2022-11-18T03:53:18;4.83;;;3.43;;
1649;SDS011;822;53.670;8.676;2022-11-18T03:55:46;4.77;;;3.73;;
1649;SDS011;822;53.670;8.676;2022-11-18T03:58:17;4.47;;;3.00;;
1649;SDS011;822;53.670;8.676;2022-11-18T04:00:47;4.07;;;3.00;;
1649;SDS011;822;53.670;8.676;2022-11-18T04:03:15;5.97;;;3.87;;
1649;SDS011;822;53.670;8.676;2022-11-18T04:05:47;3.60;;;3.30;;
1649;SDS011;822;53.670;8.676;2022-11-18T04:08:17;3.87;;;3.57;;
1649;SDS011;822;53.670;8.676;2022-11-18T04:10:48;3.27;;;2.87;;
1649;SDS011;822;53.670;8.676;2022-11-18T04:13:17;5.63;;;3.67;;
1649;SDS011;822;53.670;8.676;2022-11-18T04:15:46;6.47;;;4.20;;
1649;SDS011;822;53.670;8.676;2022-11-18T04:18:13;5.80;;;4.73;;
1649;SDS011;822;53.670;8.676;2022-11-18T04:20:40;7.53;;;5.93;;
1649;SDS011;822;53.670;8.676;2022-11-18T04:23:08;3.23;;;2.83;;
1649;SDS011;822;53.670;8.676;2022-11-18T04:25:35;7.40;;;3.50;;
1649;SDS011;822;53.670;8.676;2022-11-18T04:28:02;5.37;;;4.87;;
1649;SDS011;822;53.670;8.676;2022-11-18T04:30:30;4.80;;;3.93;;
1649;SDS011;822;53.670;8.676;2022-11-18T04:32:57;4.47;;;2.27;;
1649;SDS011;822;53.670;8.676;2022-11-18T04:35:24;4.23;;;3.80;;
1649;SDS011;822;53.670;8.676;2022-11-18T04:37:51;3.47;;;3.17;;
1649;SDS011;822;53.670;8.676;2022-11-18T04:40:19;4.00;;;3.67;;
1649;SDS011;822;53.670;8.676;2022-11-18T04:42:46;3.73;;;2.40;;
1649;SDS011;822;53.670;8.676;2022-11-18T04:45:13;7.80;;;4.20;;
1649;SDS011;822;53.670;8.676;2022-11-18T04:47:40;5.97;;;4.13;;
1649;SDS011;822;53.670;8.676;2022-11-18T04:50:07;5.87;;;4.63;;
1649;SDS011;822;53.670;8.676;2022-11-18T04:52:34;5.20;;;3.43;;
1649;SDS011;822;53.670;8.676;2022-11-18T04:55:01;4.10;;;2.43;;
1649;SDS011;822;53.670;8.676;2022-11-18T04:57:29;4.87;;;4.43;;
1649;SDS011;822;53.670;8.676;2022-11-18T04:59:56;3.73;;;3.37;;
1649;SDS011;822;53.670;8.676;2022-11-18T05:02:23;4.30;;;3.63;;
1649;SDS011;822;53.670;8.676;2022-11-18T05:04:49;7.47;;;4.37;;
1649;SDS011;822;53.670;8.676;2022-11-18T05:07:16;5.27;;;4.47;;
1649;SDS011;822;53.670;8.676;2022-11-18T05:09:43;9.20;;;4.70;;
1649;SDS011;822;53.670;8.676;2022-11-18T05:12:11;3.67;;;3.37;;
1649;SDS011;822;53.670;8.676;2022-11-18T05:14:57;3.50;;;3.20;;
1649;SDS011;822;53.670;8.676;2022-11-18T05:17:24;6.03;;;4.40;;
1649;SDS011;822;53.670;8.676;2022-11-18T05:19:50;5.40;;;3.10;;
1649;SDS011;822;53.670;8.676;2022-11-18T05:22:17;5.63;;;4.00;;
1649;SDS011;822;53.670;8.676;2022-11-18T05:24:44;5.00;;;4.50;;
1649;SDS011;822;53.670;8.676;2022-11-18T05:27:11;7.73;;;5.70;;
1649;SDS011;822;53.670;8.676;2022-11-18T05:29:38;5.90;;;4.70;;
1649;SDS011;822;53.670;8.676;2022-11-18T05:32:06;9.93;;;5.27;;
1649;SDS011;822;53.670;8.676;2022-11-18T05:34:33;4.80;;;2.87;;
1649;SDS011;822;53.670;8.676;2022-11-18T05:36:59;3.40;;;3.10;;
1649;SDS011;822;53.670;8.676;2022-11-18T05:39:26;5.73;;;4.80;;
1649;SDS011;822;53.670;8.676;2022-11-18T05:41:53;5.23;;;4.40;;
1649;SDS011;822;53.670;8.676;2022-11-18T05:44:37;5.70;;;4.47;;
1649;SDS011;822;53.670;8.676;2022-11-18T05:47:05;6.30;;;3.83;;
1649;SDS011;822;53.670;8.676;2022-11-18T05:49:32;5.10;;;4.63;;
1649;SDS011;822;53.670;8.676;2022-11-18T05:51:59;5.30;;;4.27;;
1649;SDS011;822;53.670;8.676;2022-11-18T05:54:26;6.63;;;3.40;;
1649;SDS011;822;53.670;8.676;2022-11-18T05:56:53;4.60;;;3.13;;
1649;SDS011;822;53.670;8.676;2022-11-18T05:59:20;5.90;;;3.83;;
1649;SDS011;822;53.670;8.676;2022-11-18T06:01:47;7.40;;;5.77;;
1649;SDS011;822;53.670;8.676;2022-11-18T06:04:20;5.53;;;5.13;;
1649;SDS011;822;53.670;8.676;2022-11-18T06:06:49;3.83;;;3.23;;
1649;SDS011;822;53.670;8.676;2022-11-18T06:09:18;7.20;;;3.93;;
1649;SDS011;822;53.670;8.676;2022-11-18T06:11:48;6.93;;;6.07;;
1649;SDS011;822;53.670;8.676;2022-11-18T06:14:17;4.43;;;3.17;;
1649;SDS011;822;53.670;8.676;2022-11-18T06:16:47;9.30;;;5.87;;
1649;SDS011;822;53.670;8.676;2022-11-18T06:19:16;7.67;;;5.00;;
1649;SDS011;822;53.670;8.676;2022-11-18T06:21:48;6.03;;;3.13;;
1649;SDS011;822;53.670;8.676;2022-11-18T06:24:15;4.10;;;3.30;;
1649;SDS011;822;53.670;8.676;2022-11-18T06:26:42;6.90;;;3.43;;
1649;SDS011;822;53.670;8.676;2022-11-18T06:29:10;6.00;;;4.40;;
1649;SDS011;822;53.670;8.676;2022-11-18T06:31:38;4.83;;;4.30;;
1649;SDS011;822;53.670;8.676;2022-11-18T06:34:05;5.23;;;4.77;;
1649;SDS011;822;53.670;8.676;2022-11-18T06:36:33;6.27;;;3.80;;
1649;SDS011;822;53.670;8.676;2022-11-18T06:39:01;6.60;;;5.47;;
1649;SDS011;822;53.670;8.676;2022-11-18T06:41:29;10.33;;;5.00;;
1649;SDS011;822;53.670;8.676;2022-11-18T06:43:56;6.27;;;4.30;;
1649;SDS011;822;53.670;8.676;2022-11-18T06:46:22;7.03;;;5.63;;
1649;SDS011;822;53.670;8.676;2022-11-18T06:49:06;6.40;;;5.63;;
1649;SDS011;822;53.670;8.676;2022-11-18T06:51:37;10.70;;;6.87;;
1649;SDS011;822;53.670;8.676;2022-11-18T06:54:05;6.27;;;4.63;;
1649;SDS011;822;53.670;8.676;2022-11-18T06:56:33;5.30;;;4.70;;
1649;SDS011;822;53.670;8.676;2022-11-18T06:59:00;6.67;;;4.57;;
1649;SDS011;822;53.670;8.676;2022-11-18T07:01:27;4.93;;;4.43;;
1649;SDS011;822;53.670;8.676;2022-11-18T07:03:56;6.03;;;5.13;;
1649;SDS011;822;53.670;8.676;2022-11-18T07:06:24;5.07;;;4.40;;
1649;SDS011;822;53.670;8.676;2022-11-18T07:08:53;7.80;;;5.07;;
1649;SDS011;822;53.670;8.676;2022-11-18T07:11:21;6.53;;;6.00;;
1649;SDS011;822;53.670;8.676;2022-11-18T07:13:49;4.57;;;3.87;;
1649;SDS011;822;53.670;8.676;2022-11-18T07:16:16;6.10;;;4.73;;
1649;SDS011;822;53.670;8.676;2022-11-18T07:18:45;7.30;;;6.30;;
1649;SDS011;822;53.670;8.676;2022-11-18T07:21:12;6.33;;;4.50;;
1649;SDS011;822;53.670;8.676;2022-11-18T07:23:40;6.60;;;4.30;;
1649;SDS011;822;53.670;8.676;2022-11-18T07:26:08;4.67;;;3.60;;
1649;SDS011;822;53.670;8.676;2022-11-18T07:28:35;3.57;;;3.27;;
1649;SDS011;822;53.670;8.676;2022-11-18T07:31:02;4.50;;;3.37;;
1649;SDS011;822;53.670;8.676;2022-11-18T07:33:29;5.37;;;4.83;;
1649;SDS011;822;53.670;8.676;2022-11-18T07:35:59;5.60;;;5.20;;
1649;SDS011;822;53.670;8.676;2022-11-18T07:38:26;4.40;;;3.90;;
1649;SDS011;822;53.670;8.676;2022-11-18T07:40:54;10.60;;;4.53;;
1649;SDS011;822;53.670;8.676;2022-11-18T07:43:22;7.70;;;5.20;;
1649;SDS011;822;53.670;8.676;2022-11-18T07:45:49;4.67;;;3.40;;
1649;SDS011;822;53.670;8.676;2022-11-18T07:48:15;5.07;;;4.60;;
1649;SDS011;822;53.670;8.676;2022-11-18T07:50:42;8.40;;;4.60;;
1649;SDS011;822;53.670;8.676;2022-11-18T07:53:09;8.33;;;6.37;;
1649;SDS011;822;53.670;8.676;2022-11-18T07:55:36;6.43;;;4.30;;
1649;SDS011;822;53.670;8.676;2022-11-18T07:58:03;8.07;;;5.20;;
1649;SDS011;822;53.670;8.676;2022-11-18T08:00:31;10.30;;;5.10;;
1649;SDS011;822;53.670;8.676;2022-11-18T08:02:58;7.43;;;4.83;;
1649;SDS011;822;53.670;8.676;2022-11-18T08:05:24;7.20;;;5.63;;
1649;SDS011;822;53.670;8.676;2022-11-18T08:07:51;4.63;;;4.10;;
1649;SDS011;822;53.670;8.676;2022-11-18T08:10:18;4.83;;;4.43;;
1649;SDS011;822;53.670;8.676;2022-11-18T08:12:45;5.70;;;5.20;;
1649;SDS011;822;53.670;8.676;2022-11-18T08:15:12;7.10;;;6.43;;
1649;SDS011;822;53.670;8.676;2022-11-18T08:17:40;6.30;;;4.00;;
1649;SDS011;822;53.670;8.676;2022-11-18T08:20:07;7.67;;;4.30;;
1649;SDS011;822;53.670;8.676;2022-11-18T08:22:38;8.60;;;5.53;;
1649;SDS011;822;53.670;8.676;2022-11-18T08:25:05;7.70;;;6.30;;
1649;SDS011;822;53.670;8.676;2022-11-18T08:27:33;7.97;;;5.73;;
1649;SDS011;822;53.670;8.676;2022-11-18T08:29:59;6.33;;;5.73;;
1649;SDS011;822;53.670;8.676;2022-11-18T08:32:26;5.20;;;4.70;;
1649;SDS011;822;53.670;8.676;2022-11-18T08:34:55;7.40;;;4.80;;
1649;SDS011;822;53.670;8.676;2022-11-18T08:37:22;7.27;;;5.63;;
1649;SDS011;822;53.670;8.676;2022-11-18T08:39:49;7.90;;;5.20;;
1649;SDS011;822;53.670;8.676;2022-11-18T08:42:15;5.50;;;3.70;;
1649;SDS011;822;53.670;8.676;2022-11-18T08:44:46;7.17;;;4.87;;
1649;SDS011;822;53.670;8.676;2022-11-18T08:47:13;3.87;;;3.57;;
1649;SDS011;822;53.670;8.676;2022-11-18T08:49:40;7.80;;;6.70;;
1649;SDS011;822;53.670;8.676;2022-11-18T08:52:08;6.97;;;5.10;;
1649;SDS011;822;53.670;8.676;2022-11-18T08:54:35;8.87;;;5.87;;
1649;SDS011;822;53.670;8.676;2022-11-18T08:57:02;5.50;;;4.57;;
1649;SDS011;822;53.670;8.676;2022-11-18T08:59:29;5.63;;;4.50;;
1649;SDS011;822;53.670;8.676;2022-11-18T09:01:56;6.90;;;5.20;;
1649;SDS011;822;53.670;8.676;2022-11-18T09:04:23;8.80;;;6.67;;
1649;SDS011;822;53.670;8.676;2022-11-18T09:06:50;7.87;;;6.53;;
1649;SDS011;822;53.670;8.676;2022-11-18T09:09:18;8.63;;;6.20;;
1649;SDS011;822;53.670;8.676;2022-11-18T09:11:45;11.07;;;5.63;;
1649;SDS011;822;53.670;8.676;2022-11-18T09:14:11;9.30;;;6.63;;
1649;SDS011;822;53.670;8.676;2022-11-18T09:16:38;5.90;;;5.07;;
1649;SDS011;822;53.670;8.676;2022-11-18T09:19:05;7.57;;;4.90;;
1649;SDS011;822;53.670;8.676;2022-11-18T09:21:32;4.40;;;3.13;;
1649;SDS011;822;53.670;8.676;2022-11-18T09:24:01;6.70;;;6.03;;
1649;SDS011;822;53.670;8.676;2022-11-18T09:26:30;6.37;;;5.50;;
1649;SDS011;822;53.670;8.676;2022-11-18T09:28:57;5.20;;;3.73;;
1649;SDS011;822;53.670;8.676;2022-11-18T09:31:24;8.73;;;6.77;;
1649;SDS011;822;53.670;8.676;2022-11-18T09:33:51;9.40;;;6.73;;
1649;SDS011;822;53.670;8.676;2022-11-18T09:36:19;5.43;;;4.93;;
1649;SDS011;822;53.670;8.676;2022-11-18T09:38:47;6.30;;;5.63;;
1649;SDS011;822;53.670;8.676;2022-11-18T09:41:20;9.70;;;5.80;;
1649;SDS011;822;53.670;8.676;2022-11-18T09:43:57;5.23;;;4.70;;
1649;SDS011;822;53.670;8.676;2022-11-18T09:46:30;6.43;;;5.43;;
1649;SDS011;822;53.670;8.676;2022-11-18T09:49:01;6.57;;;5.77;;
1649;SDS011;822;53.670;8.676;2022-11-18T09:51:38;8.40;;;6.30;;
1649;SDS011;822;53.670;8.676;2022-11-18T09:54:07;7.23;;;5.70;;
1649;SDS011;822;53.670;8.676;2022-11-18T09:56:36;9.90;;;5.37;;
1649;SDS011;822;53.670;8.676;2022-11-18T09:59:05;5.90;;;5.40;;
1649;SDS011;822;53.670;8.676;2022-11-18T10:01:32;8.93;;;5.63;;
1649;SDS011;822;53.670;8.676;2022-11-18T10:04:01;9.03;;;5.87;;
1649;SDS011;822;53.670;8.676;2022-11-18T10:06:28;7.03;;;5.67;;
1649;SDS011;822;53.670;8.676;2022-11-18T10:09:03;4.10;;;3.70;;
1649;SDS011;822;53.670;8.676;2022-11-18T10:11:39;4.67;;;4.00;;
1649;SDS011;822;53.670;8.676;2022-11-18T10:14:18;5.13;;;4.07;;
1649;SDS011;822;53.670;8.676;2022-11-18T10:16:53;5.13;;;4.63;;
1649;SDS011;822;53.670;8.676;2022-11-18T10:19:26;8.30;;;6.37;;
1649;SDS011;822;53.670;8.676;2022-11-18T10:22:05;6.43;;;5.80;;
1649;SDS011;822;53.670;8.676;2022-11-18T10:24:40;7.00;;;5.23;;
1649;SDS011;822;53.670;8.676;2022-11-18T10:27:09;5.80;;;4.10;;
1649;SDS011;822;53.670;8.676;2022-11-18T10:29:38;8.17;;;6.57;;
1649;SDS011;822;53.670;8.676;2022-11-18T10:32:06;5.23;;;4.67;;
1649;SDS011;822;53.670;8.676;2022-11-18T10:34:34;5.03;;;4.00;;
1649;SDS011;822;53.670;8.676;2022-11-18T10:37:18;5.73;;;4.77;;
1649;SDS011;822;53.670;8.676;2022-11-18T10:39:48;4.83;;;4.40;;
1649;SDS011;822;53.670;8.676;2022-11-18T10:42:16;4.73;;;4.30;;
1649;SDS011;822;53.670;8.676;2022-11-18T10:44:50;8.07;;;6.03;;
1649;SDS011;822;53.670;8.676;2022-11-18T10:47:22;7.70;;;6.60;;
1649;SDS011;822;53.670;8.676;2022-11-18T10:49:51;5.47;;;4.30;;
1649;SDS011;822;53.670;8.676;2022-11-18T10:52:19;5.70;;;4.70;;
1649;SDS011;822;53.670;8.676;2022-11-18T10:54:46;8.80;;;4.50;;
1649;SDS011;822;53.670;8.676;2022-11-18T10:57:35;4.67;;;4.00;;
1649;SDS011;822;53.670;8.676;2022-11-18T11:00:05;3.90;;;3.10;;
1649;SDS011;822;53.670;8.676;2022-11-18T11:02:53;6.47;;;5.83;;
1649;SDS011;822;53.670;8.676;2022-11-18T11:05:20;4.53;;;4.13;;
1649;SDS011;822;53.670;8.676;2022-11-18T11:07:51;6.07;;;5.57;;
1649;SDS011;822;53.670;8.676;2022-11-18T11:10:27;5.37;;;4.00;;
1649;SDS011;822;53.670;8.676;2022-11-18T11:12:55;8.57;;;6.00;;
1649;SDS011;822;53.670;8.676;2022-11-18T11:15:26;4.67;;;4.20;;
1649;SDS011;822;53.670;8.676;2022-11-18T11:17:58;4.83;;;3.53;;
1649;SDS011;822;53.670;8.676;2022-11-18T11:20:44;3.93;;;3.63;;
1649;SDS011;822;53.670;8.676;2022-11-18T11:23:11;5.90;;;4.57;;
1649;SDS011;822;53.670;8.676;2022-11-18T11:25:41;7.63;;;4.50;;
1649;SDS011;822;53.670;8.676;2022-11-18T11:28:11;6.37;;;3.97;;
1649;SDS011;822;53.670;8.676;2022-11-18T11:30:43;3.50;;;2.87;;
1649;SDS011;822;53.670;8.676;2022-11-18T11:33:18;6.40;;;4.87;;
1649;SDS011;822;53.670;8.676;2022-11-18T11:35:54;5.40;;;4.30;;
1649;SDS011;822;53.670;8.676;2022-11-18T11:38:31;4.53;;;4.13;;
1649;SDS011;822;53.670;8.676;2022-11-18T11:41:05;6.30;;;3.77;;
1649;SDS011;822;53.670;8.676;2022-11-18T11:43:40;7.30;;;4.73;;
1649;SDS011;822;53.670;8.676;2022-11-18T11:46:22;4.07;;;3.77;;
1649;SDS011;822;53.670;8.676;2022-11-18T11:48:57;8.27;;;5.07;;
1649;SDS011;822;53.670;8.676;2022-11-18T11:51:38;5.33;;;4.03;;
1649;SDS011;822;53.670;8.676;2022-11-18T11:54:12;4.47;;;3.30;;
1649;SDS011;822;53.670;8.676;2022-11-18T11:56:45;4.03;;;3.33;;
1649;SDS011;822;53.670;8.676;2022-11-18T11:59:17;13.13;;;4.27;;
1649;SDS011;822;53.670;8.676;2022-11-18T12:01:53;4.83;;;3.77;;
1649;SDS011;822;53.670;8.676;2022-11-18T12:04:30;5.00;;;4.50;;
1649;SDS011;822;53.670;8.676;2022-11-18T12:07:02;4.07;;;3.67;;
1649;SDS011;822;53.670;8.676;2022-11-18T12:09:36;4.87;;;4.33;;
1649;SDS011;822;53.670;8.676;2022-11-18T12:12:11;3.50;;;3.00;;
1649;SDS011;822;53.670;8.676;2022-11-18T12:14:54;6.90;;;2.90;;
1649;SDS011;822;53.670;8.676;2022-11-18T12:17:26;4.27;;;3.97;;
1649;SDS011;822;53.670;8.676;2022-11-18T12:19:54;4.33;;;2.63;;
1649;SDS011;822;53.670;8.676;2022-11-18T12:22:21;3.10;;;2.47;;
1649;SDS011;822;53.670;8.676;2022-11-18T12:24:48;4.87;;;3.60;;
1649;SDS011;822;53.670;8.676;2022-11-18T12:30:21;5.43;;;4.43;;
1649;SDS011;822;53.670;8.676;2022-11-18T12:32:49;3.37;;;3.03;;
1649;SDS011;822;53.670;8.676;2022-11-18T12:35:22;2.60;;;2.40;;
1649;SDS011;822;53.670;8.676;2022-11-18T12:37:58;4.53;;;2.83;;
1649;SDS011;822;53.670;8.676;2022-11-18T12:40:33;3.93;;;3.23;;
1649;SDS011;822;53.670;8.676;2022-11-18T12:43:02;2.30;;;1.80;;
1649;SDS011;822;53.670;8.676;2022-11-18T12:45:49;4.03;;;3.63;;
1649;SDS011;822;53.670;8.676;2022-11-18T12:48:29;2.87;;;1.63;;
1649;SDS011;822;53.670;8.676;2022-11-18T12:56:56;3.27;;;3.07;;
1649;SDS011;822;53.670;8.676;2022-11-18T12:59:27;2.13;;;1.93;;
1649;SDS011;822;53.670;8.676;2022-11-18T13:02:03;2.33;;;2.13;;
1649;SDS011;822;53.670;8.676;2022-11-18T13:04:32;3.17;;;2.50;;
1649;SDS011;822;53.670;8.676;2022-11-18T13:06:59;2.97;;;2.70;;
1649;SDS011;822;53.670;8.676;2022-11-18T13:09:27;4.13;;;2.70;;
1649;SDS011;822;53.670;8.676;2022-11-18T13:11:56;1.83;;;1.73;;
1649;SDS011;822;53.670;8.676;2022-11-18T13:14:26;3.37;;;3.17;;
1649;SDS011;822;53.670;8.676;2022-11-18T13:17:24;2.60;;;2.00;;
1649;SDS011;822;53.670;8.676;2022-11-18T13:22:58;2.30;;;1.97;;
1649;SDS011;822;53.670;8.676;2022-11-18T13:25:43;2.60;;;2.40;;
1649;SDS011;822;53.670;8.676;2022-11-18T13:28:16;2.53;;;1.43;;
1649;SDS011;822;53.670;8.676;2022-11-18T13:30:50;2.27;;;2.07;;
1649;SDS011;822;53.670;8.676;2022-11-18T13:33:20;1.70;;;1.60;;
1649;SDS011;822;53.670;8.676;2022-11-18T13:35:49;2.40;;;2.30;;
1649;SDS011;822;53.670;8.676;2022-11-18T13:38:18;2.07;;;1.87;;
1649;SDS011;822;53.670;8.676;2022-11-18T13:40:47;2.73;;;1.97;;
1649;SDS011;822;53.670;8.676;2022-11-18T13:43:41;2.93;;;2.73;;
1649;SDS011;822;53.670;8.676;2022-11-18T13:46:08;2.30;;;2.10;;
1649;SDS011;822;53.670;8.676;2022-11-18T13:48:38;3.93;;;3.40;;
1649;SDS011;822;53.670;8.676;2022-11-18T13:51:07;4.43;;;2.00;;
1649;SDS011;822;53.670;8.676;2022-11-18T13:53:34;2.93;;;2.00;;
1649;SDS011;822;53.670;8.676;2022-11-18T13:56:03;2.20;;;2.10;;
1649;SDS011;822;53.670;8.676;2022-11-18T13:58:32;2.83;;;2.53;;
1649;SDS011;822;53.670;8.676;2022-11-18T14:01:14;2.00;;;1.60;;
1649;SDS011;822;53.670;8.676;2022-11-18T14:03:46;2.57;;;2.07;;
1649;SDS011;822;53.670;8.676;2022-11-18T14:06:22;2.33;;;1.60;;
1649;SDS011;822;53.670;8.676;2022-11-18T14:08:49;2.30;;;2.07;;
1649;SDS011;822;53.670;8.676;2022-11-18T14:13:59;1.90;;;1.70;;
1649;SDS011;822;53.670;8.676;2022-11-18T14:16:31;1.30;;;1.20;;
1649;SDS011;822;53.670;8.676;2022-11-18T14:18:59;3.37;;;2.30;;
1649;SDS011;822;53.670;8.676;2022-11-18T14:21:26;2.10;;;1.90;;
1649;SDS011;822;53.670;8.676;2022-11-18T14:23:54;2.17;;;1.97;;
1649;SDS011;822;53.670;8.676;2022-11-18T14:26:25;2.40;;;1.90;;
1649;SDS011;822;53.670;8.676;2022-11-18T14:28:54;3.13;;;2.20;;
1649;SDS011;822;53.670;8.676;2022-11-18T14:31:22;1.13;;;1.13;;
1649;SDS011;822;53.670;8.676;2022-11-18T14:34:04;1.87;;;1.77;;
1649;SDS011;822;53.670;8.676;2022-11-18T14:36:39;1.70;;;1.60;;
1649;SDS011;822;53.670;8.676;2022-11-18T14:39:11;4.40;;;2.80;;
1649;SDS011;822;53.670;8.676;2022-11-18T14:41:38;2.40;;;2.20;;
1649;SDS011;822;53.670;8.676;2022-11-18T14:44:13;1.37;;;1.30;;
1649;SDS011;822;53.670;8.676;2022-11-18T14:46:41;3.07;;;1.60;;
1649;SDS011;822;53.670;8.676;2022-11-18T14:49:11;2.50;;;1.17;;
1649;SDS011;822;53.670;8.676;2022-11-18T14:51:39;2.40;;;1.97;;
1649;SDS011;822;53.670;8.676;2022-11-18T14:54:06;1.07;;;1.07;;
1649;SDS011;822;53.670;8.676;2022-11-18T14:56:36;2.10;;;1.80;;
1649;SDS011;822;53.670;8.676;2022-11-18T14:59:03;2.40;;;2.00;;
1649;SDS011;822;53.670;8.676;2022-11-18T15:01:30;2.00;;;1.40;;
1649;SDS011;822;53.670;8.676;2022-11-18T15:03:57;2.23;;;1.73;;
1649;SDS011;822;53.670;8.676;2022-11-18T15:06:25;1.53;;;1.43;;
1649;SDS011;822;53.670;8.676;2022-11-18T15:08:55;1.63;;;1.53;;
1649;SDS011;822;53.670;8.676;2022-11-18T15:11:22;2.20;;;2.10;;
1649;SDS011;822;53.670;8.676;2022-11-18T15:13:49;1.60;;;1.50;;
1649;SDS011;822;53.670;8.676;2022-11-18T15:16:16;1.17;;;1.10;;
1649;SDS011;822;53.670;8.676;2022-11-18T15:18:46;2.73;;;1.90;;
1649;SDS011;822;53.670;8.676;2022-11-18T15:21:14;2.33;;;1.50;;
1649;SDS011;822;53.670;8.676;2022-11-18T15:23:43;2.73;;;2.53;;
1649;SDS011;822;53.670;8.676;2022-11-18T15:26:13;2.37;;;2.17;;
1649;SDS011;822;53.670;8.676;2022-11-18T15:28:43;1.90;;;1.80;;
1649;SDS011;822;53.670;8.676;2022-11-18T15:31:10;1.27;;;1.03;;
1649;SDS011;822;53.670;8.676;2022-11-18T15:33:37;2.07;;;1.63;;
1649;SDS011;822;53.670;8.676;2022-11-18T15:36:04;2.23;;;1.70;;
1649;SDS011;822;53.670;8.676;2022-11-18T15:38:39;2.20;;;1.87;;
1649;SDS011;822;53.670;8.676;2022-11-18T15:41:17;2.53;;;1.60;;
1649;SDS011;822;53.670;8.676;2022-11-18T15:43:45;1.60;;;1.50;;
1649;SDS011;822;53.670;8.676;2022-11-18T15:46:12;2.47;;;2.07;;
1649;SDS011;822;53.670;8.676;2022-11-18T15:48:42;2.60;;;2.17;;
1649;SDS011;822;53.670;8.676;2022-11-18T15:51:09;1.67;;;1.57;;
1649;SDS011;822;53.670;8.676;2022-11-18T15:53:37;1.50;;;1.13;;
1649;SDS011;822;53.670;8.676;2022-11-18T15:56:23;1.63;;;1.53;;
1649;SDS011;822;53.670;8.676;2022-11-18T15:58:52;1.37;;;1.27;;
1649;SDS011;822;53.670;8.676;2022-11-18T16:01:19;2.00;;;1.80;;
1649;SDS011;822;53.670;8.676;2022-11-18T16:03:45;2.23;;;1.40;;
1649;SDS011;822;53.670;8.676;2022-11-18T16:06:13;0.70;;;0.70;;